sensor_id;sensor_type;location;lat;lon;timestamp;temperature;humidity
15099;DHT22;33900;53.640;9.942;2024-01-27T00:00:22;8.80;92.90
15099;DHT22;33900;53.640;9.942;2024-01-27T00:02:48;8.80;92.90
15099;DHT22;33900;53.640;9.942;2024-01-27T00:05:13;8.80;92.90
15099;DHT22;33900;53.640;9.942;2024-01-27T00:07:39;8.80;92.90
15099;DHT22;33900;53.640;9.942;2024-01-27T00:10:06;8.80;93.00
15099;DHT22;33900;53.640;9.942;2024-01-27T00:12:32;8.80;92.90
15099;DHT22;33900;53.640;9.942;2024-01-27T00:14:57;8.70;92.90
15099;DHT22;33900;53.640;9.942;2024-01-27T00:17:23;8.70;92.80
15099;DHT22;33900;53.640;9.942;2024-01-27T00:19:49;8.70;92.80
15099;DHT22;33900;53.640;9.942;2024-01-27T00:22:15;8.60;92.80
15099;DHT22;33900;53.640;9.942;2024-01-27T00:24:42;8.60;92.90
15099;DHT22;33900;53.640;9.942;2024-01-27T00:27:08;8.60;93.00
15099;DHT22;33900;53.640;9.942;2024-01-27T00:29:33;8.70;93.00
15099;DHT22;33900;53.640;9.942;2024-01-27T00:31:59;8.60;93.10
15099;DHT22;33900;53.640;9.942;2024-01-27T00:34:25;8.70;93.10
15099;DHT22;33900;53.640;9.942;2024-01-27T00:36:51;8.70;93.10
15099;DHT22;33900;53.640;9.942;2024-01-27T00:39:17;8.70;93.10
15099;DHT22;33900;53.640;9.942;2024-01-27T00:41:43;8.70;93.10
15099;DHT22;33900;53.640;9.942;2024-01-27T00:44:09;8.70;93.10
15099;DHT22;33900;53.640;9.942;2024-01-27T00:46:38;8.70;93.10
15099;DHT22;33900;53.640;9.942;2024-01-27T00:49:04;8.60;93.10
15099;DHT22;33900;53.640;9.942;2024-01-27T00:51:30;8.60;93.20
15099;DHT22;33900;53.640;9.942;2024-01-27T00:53:55;8.60;93.10
15099;DHT22;33900;53.640;9.942;2024-01-27T00:56:21;8.70;93.20
15099;DHT22;33900;53.640;9.942;2024-01-27T00:58:46;8.60;93.20
15099;DHT22;33900;53.640;9.942;2024-01-27T01:01:12;8.60;93.20
15099;DHT22;33900;53.640;9.942;2024-01-27T01:03:38;8.60;93.30
15099;DHT22;33900;53.640;9.942;2024-01-27T01:06:03;8.60;93.30
15099;DHT22;33900;53.640;9.942;2024-01-27T01:08:29;8.60;93.30
15099;DHT22;33900;53.640;9.942;2024-01-27T01:10:54;8.60;93.30
15099;DHT22;33900;53.640;9.942;2024-01-27T01:13:20;8.60;93.30
15099;DHT22;33900;53.640;9.942;2024-01-27T01:15:46;8.60;93.40
15099;DHT22;33900;53.640;9.942;2024-01-27T01:18:12;8.60;93.40
15099;DHT22;33900;53.640;9.942;2024-01-27T01:20:37;8.60;93.50
15099;DHT22;33900;53.640;9.942;2024-01-27T01:23:03;8.60;93.50
15099;DHT22;33900;53.640;9.942;2024-01-27T01:25:28;8.60;93.50
15099;DHT22;33900;53.640;9.942;2024-01-27T01:27:54;8.60;93.50
15099;DHT22;33900;53.640;9.942;2024-01-27T01:30:20;8.60;93.60
15099;DHT22;33900;53.640;9.942;2024-01-27T01:32:46;8.60;93.60
15099;DHT22;33900;53.640;9.942;2024-01-27T01:35:11;8.60;93.60
15099;DHT22;33900;53.640;9.942;2024-01-27T01:37:37;8.60;93.60
15099;DHT22;33900;53.640;9.942;2024-01-27T01:40:02;8.60;93.60
15099;DHT22;33900;53.640;9.942;2024-01-27T01:42:28;8.60;93.50
15099;DHT22;33900;53.640;9.942;2024-01-27T01:44:54;8.60;93.60
15099;DHT22;33900;53.640;9.942;2024-01-27T01:47:20;8.60;93.60
15099;DHT22;33900;53.640;9.942;2024-01-27T01:49:48;8.60;93.60
15099;DHT22;33900;53.640;9.942;2024-01-27T01:52:13;8.60;93.60
15099;DHT22;33900;53.640;9.942;2024-01-27T01:54:51;8.60;93.60
15099;DHT22;33900;53.640;9.942;2024-01-27T01:57:17;8.60;93.70
15099;DHT22;33900;53.640;9.942;2024-01-27T01:59:42;8.60;93.70
15099;DHT22;33900;53.640;9.942;2024-01-27T02:02:09;8.60;93.70
15099;DHT22;33900;53.640;9.942;2024-01-27T02:04:41;8.60;93.60
15099;DHT22;33900;53.640;9.942;2024-01-27T02:07:06;8.60;93.70
15099;DHT22;33900;53.640;9.942;2024-01-27T02:09:32;8.60;93.70
15099;DHT22;33900;53.640;9.942;2024-01-27T02:11:58;8.60;93.70
15099;DHT22;33900;53.640;9.942;2024-01-27T02:14:23;8.60;93.60
15099;DHT22;33900;53.640;9.942;2024-01-27T02:16:50;8.60;93.70
15099;DHT22;33900;53.640;9.942;2024-01-27T02:19:16;8.60;93.70
15099;DHT22;33900;53.640;9.942;2024-01-27T02:21:41;8.60;93.80
15099;DHT22;33900;53.640;9.942;2024-01-27T02:24:07;8.60;93.80
15099;DHT22;33900;53.640;9.942;2024-01-27T02:26:33;8.60;93.80
15099;DHT22;33900;53.640;9.942;2024-01-27T02:28:58;8.60;93.70
15099;DHT22;33900;53.640;9.942;2024-01-27T02:31:24;8.60;93.70
15099;DHT22;33900;53.640;9.942;2024-01-27T02:33:49;8.60;93.80
15099;DHT22;33900;53.640;9.942;2024-01-27T02:36:15;8.60;93.80
15099;DHT22;33900;53.640;9.942;2024-01-27T02:38:41;8.60;93.80
15099;DHT22;33900;53.640;9.942;2024-01-27T02:41:08;8.60;93.80
15099;DHT22;33900;53.640;9.942;2024-01-27T02:43:34;8.60;93.80
15099;DHT22;33900;53.640;9.942;2024-01-27T02:46:00;8.60;93.90
15099;DHT22;33900;53.640;9.942;2024-01-27T02:48:25;8.60;93.90
15099;DHT22;33900;53.640;9.942;2024-01-27T02:50:51;8.60;93.90
15099;DHT22;33900;53.640;9.942;2024-01-27T02:53:16;8.50;93.90
15099;DHT22;33900;53.640;9.942;2024-01-27T02:55:42;8.60;93.90
15099;DHT22;33900;53.640;9.942;2024-01-27T02:58:08;8.50;93.90
15099;DHT22;33900;53.640;9.942;2024-01-27T03:00:33;8.60;93.90
15099;DHT22;33900;53.640;9.942;2024-01-27T03:02:59;8.50;93.90
15099;DHT22;33900;53.640;9.942;2024-01-27T03:05:24;8.50;94.00
15099;DHT22;33900;53.640;9.942;2024-01-27T03:07:50;8.50;94.00
15099;DHT22;33900;53.640;9.942;2024-01-27T03:10:15;8.50;94.10
15099;DHT22;33900;53.640;9.942;2024-01-27T03:12:41;8.60;94.10
15099;DHT22;33900;53.640;9.942;2024-01-27T03:15:07;8.60;94.10
15099;DHT22;33900;53.640;9.942;2024-01-27T03:17:33;8.50;94.10
15099;DHT22;33900;53.640;9.942;2024-01-27T03:19:58;8.50;94.00
15099;DHT22;33900;53.640;9.942;2024-01-27T03:22:24;8.50;94.00
15099;DHT22;33900;53.640;9.942;2024-01-27T03:24:50;8.50;94.10
15099;DHT22;33900;53.640;9.942;2024-01-27T03:27:17;8.50;94.10
15099;DHT22;33900;53.640;9.942;2024-01-27T03:29:42;8.50;94.20
15099;DHT22;33900;53.640;9.942;2024-01-27T03:32:08;8.50;94.10
15099;DHT22;33900;53.640;9.942;2024-01-27T03:34:33;8.50;94.10
15099;DHT22;33900;53.640;9.942;2024-01-27T03:36:59;8.50;94.20
15099;DHT22;33900;53.640;9.942;2024-01-27T03:39:25;8.50;94.10
15099;DHT22;33900;53.640;9.942;2024-01-27T03:41:51;8.50;94.10
15099;DHT22;33900;53.640;9.942;2024-01-27T03:44:16;8.50;94.20
15099;DHT22;33900;53.640;9.942;2024-01-27T03:46:57;8.50;94.20
15099;DHT22;33900;53.640;9.942;2024-01-27T03:49:23;8.50;94.20
15099;DHT22;33900;53.640;9.942;2024-01-27T03:51:48;8.50;94.20
15099;DHT22;33900;53.640;9.942;2024-01-27T03:54:14;8.50;94.20
15099;DHT22;33900;53.640;9.942;2024-01-27T03:56:41;8.50;94.20
15099;DHT22;33900;53.640;9.942;2024-01-27T03:59:06;8.50;94.20
15099;DHT22;33900;53.640;9.942;2024-01-27T04:01:34;8.50;94.20
15099;DHT22;33900;53.640;9.942;2024-01-27T04:04:00;8.50;94.20
15099;DHT22;33900;53.640;9.942;2024-01-27T04:06:26;8.50;94.20
15099;DHT22;33900;53.640;9.942;2024-01-27T04:08:51;8.50;94.20
15099;DHT22;33900;53.640;9.942;2024-01-27T04:11:23;8.50;94.20
15099;DHT22;33900;53.640;9.942;2024-01-27T04:13:49;8.50;94.20
15099;DHT22;33900;53.640;9.942;2024-01-27T04:16:15;8.50;94.30
15099;DHT22;33900;53.640;9.942;2024-01-27T04:18:41;8.50;94.30
15099;DHT22;33900;53.640;9.942;2024-01-27T04:21:07;8.50;94.30
15099;DHT22;33900;53.640;9.942;2024-01-27T04:23:33;8.50;94.30
15099;DHT22;33900;53.640;9.942;2024-01-27T04:25:59;8.50;94.30
15099;DHT22;33900;53.640;9.942;2024-01-27T04:28:25;8.50;94.30
15099;DHT22;33900;53.640;9.942;2024-01-27T04:30:50;8.40;94.30
15099;DHT22;33900;53.640;9.942;2024-01-27T04:33:16;8.40;94.30
15099;DHT22;33900;53.640;9.942;2024-01-27T04:35:41;8.40;94.30
15099;DHT22;33900;53.640;9.942;2024-01-27T04:38:08;8.40;94.30
15099;DHT22;33900;53.640;9.942;2024-01-27T04:40:33;8.40;94.30
15099;DHT22;33900;53.640;9.942;2024-01-27T04:43:01;8.40;94.30
15099;DHT22;33900;53.640;9.942;2024-01-27T04:45:26;8.40;94.30
15099;DHT22;33900;53.640;9.942;2024-01-27T04:47:53;8.40;94.40
15099;DHT22;33900;53.640;9.942;2024-01-27T04:50:19;8.40;94.40
15099;DHT22;33900;53.640;9.942;2024-01-27T04:52:44;8.40;94.50
15099;DHT22;33900;53.640;9.942;2024-01-27T04:55:10;8.40;94.40
15099;DHT22;33900;53.640;9.942;2024-01-27T04:57:36;8.40;94.40
15099;DHT22;33900;53.640;9.942;2024-01-27T05:00:02;8.30;94.40
15099;DHT22;33900;53.640;9.942;2024-01-27T05:02:29;8.40;94.50
15099;DHT22;33900;53.640;9.942;2024-01-27T05:04:55;8.40;94.50
15099;DHT22;33900;53.640;9.942;2024-01-27T05:07:20;8.30;94.50
15099;DHT22;33900;53.640;9.942;2024-01-27T05:09:46;8.30;94.50
15099;DHT22;33900;53.640;9.942;2024-01-27T05:12:12;8.30;94.50
15099;DHT22;33900;53.640;9.942;2024-01-27T05:14:37;8.30;94.50
15099;DHT22;33900;53.640;9.942;2024-01-27T05:17:03;8.30;94.50
15099;DHT22;33900;53.640;9.942;2024-01-27T05:19:28;8.30;94.40
15099;DHT22;33900;53.640;9.942;2024-01-27T05:21:54;8.20;94.40
15099;DHT22;33900;53.640;9.942;2024-01-27T05:24:20;8.20;94.40
15099;DHT22;33900;53.640;9.942;2024-01-27T05:26:45;8.20;94.40
15099;DHT22;33900;53.640;9.942;2024-01-27T05:29:11;8.20;94.30
15099;DHT22;33900;53.640;9.942;2024-01-27T05:31:37;8.10;94.30
15099;DHT22;33900;53.640;9.942;2024-01-27T05:34:02;8.10;94.30
15099;DHT22;33900;53.640;9.942;2024-01-27T05:36:28;8.00;94.30
15099;DHT22;33900;53.640;9.942;2024-01-27T05:38:58;8.00;94.40
15099;DHT22;33900;53.640;9.942;2024-01-27T05:41:26;8.00;94.40
15099;DHT22;33900;53.640;9.942;2024-01-27T05:43:54;8.00;94.50
15099;DHT22;33900;53.640;9.942;2024-01-27T05:46:19;8.00;94.50
15099;DHT22;33900;53.640;9.942;2024-01-27T05:48:45;7.90;94.50
15099;DHT22;33900;53.640;9.942;2024-01-27T05:51:11;7.90;94.50
15099;DHT22;33900;53.640;9.942;2024-01-27T05:53:37;7.90;94.50
15099;DHT22;33900;53.640;9.942;2024-01-27T05:56:03;7.90;94.50
15099;DHT22;33900;53.640;9.942;2024-01-27T05:58:28;7.90;94.60
15099;DHT22;33900;53.640;9.942;2024-01-27T06:00:54;7.80;94.50
15099;DHT22;33900;53.640;9.942;2024-01-27T06:03:20;7.80;94.60
15099;DHT22;33900;53.640;9.942;2024-01-27T06:05:45;7.80;94.60
15099;DHT22;33900;53.640;9.942;2024-01-27T06:08:11;7.80;94.60
15099;DHT22;33900;53.640;9.942;2024-01-27T06:10:37;7.80;94.60
15099;DHT22;33900;53.640;9.942;2024-01-27T06:13:03;7.80;94.60
15099;DHT22;33900;53.640;9.942;2024-01-27T06:15:29;7.80;94.70
15099;DHT22;33900;53.640;9.942;2024-01-27T06:17:54;7.70;94.70
15099;DHT22;33900;53.640;9.942;2024-01-27T06:20:20;7.80;94.80
15099;DHT22;33900;53.640;9.942;2024-01-27T06:22:45;7.70;94.70
15099;DHT22;33900;53.640;9.942;2024-01-27T06:25:11;7.70;94.70
15099;DHT22;33900;53.640;9.942;2024-01-27T06:27:37;7.70;94.80
15099;DHT22;33900;53.640;9.942;2024-01-27T06:30:07;7.70;94.80
15099;DHT22;33900;53.640;9.942;2024-01-27T06:32:33;7.70;94.80
15099;DHT22;33900;53.640;9.942;2024-01-27T06:34:58;7.70;94.80
15099;DHT22;33900;53.640;9.942;2024-01-27T06:37:24;7.60;94.80
15099;DHT22;33900;53.640;9.942;2024-01-27T06:39:50;7.60;94.80
15099;DHT22;33900;53.640;9.942;2024-01-27T06:42:15;7.60;94.80
15099;DHT22;33900;53.640;9.942;2024-01-27T06:44:41;7.60;94.80
15099;DHT22;33900;53.640;9.942;2024-01-27T06:47:07;7.60;94.80
15099;DHT22;33900;53.640;9.942;2024-01-27T06:49:33;7.50;94.80
15099;DHT22;33900;53.640;9.942;2024-01-27T06:51:59;7.50;94.80
15099;DHT22;33900;53.640;9.942;2024-01-27T06:54:26;7.50;94.90
15099;DHT22;33900;53.640;9.942;2024-01-27T06:56:51;7.50;94.90
15099;DHT22;33900;53.640;9.942;2024-01-27T06:59:17;7.40;94.80
15099;DHT22;33900;53.640;9.942;2024-01-27T07:01:46;7.40;94.90
15099;DHT22;33900;53.640;9.942;2024-01-27T07:04:16;7.40;94.90
15099;DHT22;33900;53.640;9.942;2024-01-27T07:06:42;7.40;94.90
15099;DHT22;33900;53.640;9.942;2024-01-27T07:09:08;7.40;94.90
15099;DHT22;33900;53.640;9.942;2024-01-27T07:11:37;7.30;94.90
15099;DHT22;33900;53.640;9.942;2024-01-27T07:14:03;7.30;94.90
15099;DHT22;33900;53.640;9.942;2024-01-27T07:16:29;7.30;95.00
15099;DHT22;33900;53.640;9.942;2024-01-27T07:18:54;7.40;95.00
15099;DHT22;33900;53.640;9.942;2024-01-27T07:21:21;7.30;95.00
15099;DHT22;33900;53.640;9.942;2024-01-27T07:23:47;7.30;95.00
15099;DHT22;33900;53.640;9.942;2024-01-27T07:26:12;7.40;95.00
15099;DHT22;33900;53.640;9.942;2024-01-27T07:28:38;7.30;95.00
15099;DHT22;33900;53.640;9.942;2024-01-27T07:31:04;7.30;95.00
15099;DHT22;33900;53.640;9.942;2024-01-27T07:33:30;7.30;95.00
15099;DHT22;33900;53.640;9.942;2024-01-27T07:35:56;7.30;95.10
15099;DHT22;33900;53.640;9.942;2024-01-27T07:38:22;7.30;95.10
15099;DHT22;33900;53.640;9.942;2024-01-27T07:40:48;7.30;95.10
15099;DHT22;33900;53.640;9.942;2024-01-27T07:43:13;7.30;95.10
15099;DHT22;33900;53.640;9.942;2024-01-27T07:45:39;7.30;95.10
15099;DHT22;33900;53.640;9.942;2024-01-27T07:48:05;7.30;95.10
15099;DHT22;33900;53.640;9.942;2024-01-27T07:50:30;7.30;95.20
15099;DHT22;33900;53.640;9.942;2024-01-27T07:52:56;7.40;95.20
15099;DHT22;33900;53.640;9.942;2024-01-27T07:55:22;7.30;95.20
15099;DHT22;33900;53.640;9.942;2024-01-27T07:57:47;7.40;95.20
15099;DHT22;33900;53.640;9.942;2024-01-27T08:00:13;7.40;95.20
15099;DHT22;33900;53.640;9.942;2024-01-27T08:02:39;7.40;95.20
15099;DHT22;33900;53.640;9.942;2024-01-27T08:05:04;7.30;95.20
15099;DHT22;33900;53.640;9.942;2024-01-27T08:07:31;7.40;95.20
15099;DHT22;33900;53.640;9.942;2024-01-27T08:09:57;7.40;95.20
15099;DHT22;33900;53.640;9.942;2024-01-27T08:12:23;7.40;95.20
15099;DHT22;33900;53.640;9.942;2024-01-27T08:14:48;7.40;95.20
15099;DHT22;33900;53.640;9.942;2024-01-27T08:17:14;7.40;95.20
15099;DHT22;33900;53.640;9.942;2024-01-27T08:19:40;7.40;95.20
15099;DHT22;33900;53.640;9.942;2024-01-27T08:22:06;7.40;95.20
15099;DHT22;33900;53.640;9.942;2024-01-27T08:24:31;7.40;95.10
15099;DHT22;33900;53.640;9.942;2024-01-27T08:26:57;7.40;95.10
15099;DHT22;33900;53.640;9.942;2024-01-27T08:29:23;7.40;95.10
15099;DHT22;33900;53.640;9.942;2024-01-27T08:31:49;7.40;95.20
15099;DHT22;33900;53.640;9.942;2024-01-27T08:34:14;7.40;95.20
15099;DHT22;33900;53.640;9.942;2024-01-27T08:36:40;7.40;95.20
15099;DHT22;33900;53.640;9.942;2024-01-27T08:39:09;7.40;95.20
15099;DHT22;33900;53.640;9.942;2024-01-27T08:41:34;7.40;95.20
15099;DHT22;33900;53.640;9.942;2024-01-27T08:44:00;7.40;95.20
15099;DHT22;33900;53.640;9.942;2024-01-27T08:46:26;7.40;95.20
15099;DHT22;33900;53.640;9.942;2024-01-27T08:48:51;7.40;95.20
15099;DHT22;33900;53.640;9.942;2024-01-27T08:51:17;7.40;95.20
15099;DHT22;33900;53.640;9.942;2024-01-27T08:53:43;7.50;95.20
15099;DHT22;33900;53.640;9.942;2024-01-27T08:56:14;7.50;95.10
15099;DHT22;33900;53.640;9.942;2024-01-27T08:58:41;7.50;95.10
15099;DHT22;33900;53.640;9.942;2024-01-27T09:01:06;7.50;95.10
15099;DHT22;33900;53.640;9.942;2024-01-27T09:03:34;7.50;95.10
15099;DHT22;33900;53.640;9.942;2024-01-27T09:05:59;7.50;95.10
15099;DHT22;33900;53.640;9.942;2024-01-27T09:08:25;7.50;95.10
15099;DHT22;33900;53.640;9.942;2024-01-27T09:10:51;7.50;95.10
15099;DHT22;33900;53.640;9.942;2024-01-27T09:13:16;7.50;95.10
15099;DHT22;33900;53.640;9.942;2024-01-27T09:15:42;7.60;95.10
15099;DHT22;33900;53.640;9.942;2024-01-27T09:18:08;7.60;95.10
15099;DHT22;33900;53.640;9.942;2024-01-27T09:20:33;7.60;95.10
15099;DHT22;33900;53.640;9.942;2024-01-27T09:22:59;7.60;95.10
15099;DHT22;33900;53.640;9.942;2024-01-27T09:25:24;7.60;95.10
15099;DHT22;33900;53.640;9.942;2024-01-27T09:27:52;7.60;95.00
15099;DHT22;33900;53.640;9.942;2024-01-27T09:30:17;7.70;95.00
15099;DHT22;33900;53.640;9.942;2024-01-27T09:32:43;7.70;94.90
15099;DHT22;33900;53.640;9.942;2024-01-27T09:35:09;7.70;94.90
15099;DHT22;33900;53.640;9.942;2024-01-27T09:37:34;7.70;94.90
15099;DHT22;33900;53.640;9.942;2024-01-27T09:40:00;7.70;94.90
15099;DHT22;33900;53.640;9.942;2024-01-27T09:42:28;7.70;94.90
15099;DHT22;33900;53.640;9.942;2024-01-27T09:44:54;7.80;94.90
15099;DHT22;33900;53.640;9.942;2024-01-27T09:47:21;7.80;94.90
15099;DHT22;33900;53.640;9.942;2024-01-27T09:49:47;7.90;95.00
15099;DHT22;33900;53.640;9.942;2024-01-27T09:52:13;7.90;95.00
15099;DHT22;33900;53.640;9.942;2024-01-27T09:54:40;8.10;95.30
15099;DHT22;33900;53.640;9.942;2024-01-27T09:57:05;8.30;95.50
15099;DHT22;33900;53.640;9.942;2024-01-27T09:59:32;8.50;95.50
15099;DHT22;33900;53.640;9.942;2024-01-27T10:01:59;8.60;95.10
15099;DHT22;33900;53.640;9.942;2024-01-27T10:04:25;8.70;94.90
15099;DHT22;33900;53.640;9.942;2024-01-27T10:06:51;8.80;94.90
15099;DHT22;33900;53.640;9.942;2024-01-27T10:09:17;9.00;94.90
15099;DHT22;33900;53.640;9.942;2024-01-27T10:11:45;9.10;94.80
15099;DHT22;33900;53.640;9.942;2024-01-27T10:14:11;9.20;94.60
15099;DHT22;33900;53.640;9.942;2024-01-27T10:16:43;9.30;94.40
15099;DHT22;33900;53.640;9.942;2024-01-27T10:19:16;9.30;94.30
15099;DHT22;33900;53.640;9.942;2024-01-27T10:21:45;9.40;93.90
15099;DHT22;33900;53.640;9.942;2024-01-27T10:24:10;9.30;93.50
15099;DHT22;33900;53.640;9.942;2024-01-27T10:26:36;9.30;93.30
15099;DHT22;33900;53.640;9.942;2024-01-27T10:29:02;9.30;93.50
15099;DHT22;33900;53.640;9.942;2024-01-27T10:31:28;9.30;93.40
15099;DHT22;33900;53.640;9.942;2024-01-27T10:33:55;9.30;93.50
15099;DHT22;33900;53.640;9.942;2024-01-27T10:36:23;9.40;93.50
15099;DHT22;33900;53.640;9.942;2024-01-27T10:38:49;9.40;93.50
15099;DHT22;33900;53.640;9.942;2024-01-27T10:41:19;9.50;93.50
15099;DHT22;33900;53.640;9.942;2024-01-27T10:43:45;9.50;93.50
15099;DHT22;33900;53.640;9.942;2024-01-27T10:46:11;9.70;93.30
15099;DHT22;33900;53.640;9.942;2024-01-27T10:48:38;9.80;93.30
15099;DHT22;33900;53.640;9.942;2024-01-27T10:51:07;10.00;93.40
15099;DHT22;33900;53.640;9.942;2024-01-27T10:53:33;10.00;93.10
15099;DHT22;33900;53.640;9.942;2024-01-27T10:56:00;10.20;93.00
15099;DHT22;33900;53.640;9.942;2024-01-27T10:58:27;10.30;92.60
15099;DHT22;33900;53.640;9.942;2024-01-27T11:00:53;10.40;92.70
15099;DHT22;33900;53.640;9.942;2024-01-27T11:03:21;10.40;92.40
15099;DHT22;33900;53.640;9.942;2024-01-27T11:05:47;10.50;92.10
15099;DHT22;33900;53.640;9.942;2024-01-27T11:08:13;10.50;91.90
15099;DHT22;33900;53.640;9.942;2024-01-27T11:10:39;10.50;92.00
15099;DHT22;33900;53.640;9.942;2024-01-27T11:13:05;10.50;91.80
15099;DHT22;33900;53.640;9.942;2024-01-27T11:15:32;10.50;91.90
15099;DHT22;33900;53.640;9.942;2024-01-27T11:17:58;10.50;91.60
15099;DHT22;33900;53.640;9.942;2024-01-27T11:20:25;10.50;91.30
15099;DHT22;33900;53.640;9.942;2024-01-27T11:22:51;10.50;91.30
15099;DHT22;33900;53.640;9.942;2024-01-27T11:25:18;10.40;91.20
15099;DHT22;33900;53.640;9.942;2024-01-27T11:27:44;10.40;91.30
15099;DHT22;33900;53.640;9.942;2024-01-27T11:32:52;10.30;91.00
15099;DHT22;33900;53.640;9.942;2024-01-27T11:35:18;10.30;91.20
15099;DHT22;33900;53.640;9.942;2024-01-27T11:37:44;10.30;91.30
15099;DHT22;33900;53.640;9.942;2024-01-27T11:40:10;10.40;91.40
15099;DHT22;33900;53.640;9.942;2024-01-27T11:42:36;10.40;91.50
15099;DHT22;33900;53.640;9.942;2024-01-27T11:45:02;10.50;91.40
15099;DHT22;33900;53.640;9.942;2024-01-27T11:47:27;10.60;91.00
15099;DHT22;33900;53.640;9.942;2024-01-27T11:49:54;10.60;90.70
15099;DHT22;33900;53.640;9.942;2024-01-27T11:52:20;10.60;90.80
15099;DHT22;33900;53.640;9.942;2024-01-27T11:54:46;10.60;90.30
15099;DHT22;33900;53.640;9.942;2024-01-27T11:57:11;10.60;90.40
15099;DHT22;33900;53.640;9.942;2024-01-27T11:59:37;10.60;90.60
15099;DHT22;33900;53.640;9.942;2024-01-27T12:02:03;10.60;90.70
15099;DHT22;33900;53.640;9.942;2024-01-27T12:04:29;10.60;90.70
15099;DHT22;33900;53.640;9.942;2024-01-27T12:06:55;10.70;90.70
15099;DHT22;33900;53.640;9.942;2024-01-27T12:09:21;10.70;90.60
15099;DHT22;33900;53.640;9.942;2024-01-27T12:11:47;10.70;90.50
15099;DHT22;33900;53.640;9.942;2024-01-27T12:14:13;10.70;90.60
15099;DHT22;33900;53.640;9.942;2024-01-27T12:16:38;10.80;90.60
15099;DHT22;33900;53.640;9.942;2024-01-27T12:19:04;10.80;90.50
15099;DHT22;33900;53.640;9.942;2024-01-27T12:21:30;10.80;90.30
15099;DHT22;33900;53.640;9.942;2024-01-27T12:23:56;10.90;90.40
15099;DHT22;33900;53.640;9.942;2024-01-27T12:26:23;11.00;90.60
15099;DHT22;33900;53.640;9.942;2024-01-27T12:28:49;11.00;90.20
15099;DHT22;33900;53.640;9.942;2024-01-27T12:31:16;11.00;89.60
15099;DHT22;33900;53.640;9.942;2024-01-27T12:33:48;11.10;89.80
15099;DHT22;33900;53.640;9.942;2024-01-27T12:36:13;11.10;90.10
15099;DHT22;33900;53.640;9.942;2024-01-27T12:38:41;11.20;90.20
15099;DHT22;33900;53.640;9.942;2024-01-27T12:41:07;11.20;90.20
15099;DHT22;33900;53.640;9.942;2024-01-27T12:43:32;11.20;90.30
15099;DHT22;33900;53.640;9.942;2024-01-27T12:45:58;11.30;90.10
15099;DHT22;33900;53.640;9.942;2024-01-27T12:48:24;11.30;90.20
15099;DHT22;33900;53.640;9.942;2024-01-27T12:50:49;11.40;90.00
15099;DHT22;33900;53.640;9.942;2024-01-27T12:53:15;11.30;89.60
15099;DHT22;33900;53.640;9.942;2024-01-27T12:55:41;11.30;89.70
15099;DHT22;33900;53.640;9.942;2024-01-27T12:58:06;11.30;89.40
15099;DHT22;33900;53.640;9.942;2024-01-27T13:00:32;11.40;89.80
15099;DHT22;33900;53.640;9.942;2024-01-27T13:02:58;11.40;89.90
15099;DHT22;33900;53.640;9.942;2024-01-27T13:05:23;11.40;89.50
15099;DHT22;33900;53.640;9.942;2024-01-27T13:07:49;11.40;89.60
15099;DHT22;33900;53.640;9.942;2024-01-27T13:10:14;11.40;89.40
15099;DHT22;33900;53.640;9.942;2024-01-27T13:12:40;11.40;89.50
15099;DHT22;33900;53.640;9.942;2024-01-27T13:15:05;11.30;89.20
15099;DHT22;33900;53.640;9.942;2024-01-27T13:17:33;11.30;89.40
15099;DHT22;33900;53.640;9.942;2024-01-27T13:19:58;11.40;89.60
15099;DHT22;33900;53.640;9.942;2024-01-27T13:22:24;11.30;89.70
15099;DHT22;33900;53.640;9.942;2024-01-27T13:24:50;11.30;88.90
15099;DHT22;33900;53.640;9.942;2024-01-27T13:27:15;11.30;88.40
15099;DHT22;33900;53.640;9.942;2024-01-27T13:29:41;11.30;88.40
15099;DHT22;33900;53.640;9.942;2024-01-27T13:32:07;11.20;88.40
15099;DHT22;33900;53.640;9.942;2024-01-27T13:34:32;11.20;88.60
15099;DHT22;33900;53.640;9.942;2024-01-27T13:36:58;11.20;88.60
15099;DHT22;33900;53.640;9.942;2024-01-27T13:39:31;11.10;88.60
15099;DHT22;33900;53.640;9.942;2024-01-27T13:41:57;11.10;89.00
15099;DHT22;33900;53.640;9.942;2024-01-27T13:44:22;11.10;89.00
15099;DHT22;33900;53.640;9.942;2024-01-27T13:46:48;11.10;89.00
15099;DHT22;33900;53.640;9.942;2024-01-27T13:49:13;11.00;89.20
15099;DHT22;33900;53.640;9.942;2024-01-27T13:51:39;11.00;89.60
15099;DHT22;33900;53.640;9.942;2024-01-27T13:54:05;11.00;89.60
15099;DHT22;33900;53.640;9.942;2024-01-27T13:56:34;11.00;89.70
15099;DHT22;33900;53.640;9.942;2024-01-27T13:59:00;10.90;89.50
15099;DHT22;33900;53.640;9.942;2024-01-27T14:01:25;10.90;89.70
15099;DHT22;33900;53.640;9.942;2024-01-27T14:03:51;10.90;89.90
15099;DHT22;33900;53.640;9.942;2024-01-27T14:06:17;10.80;90.00
15099;DHT22;33900;53.640;9.942;2024-01-27T14:08:43;10.80;90.00
15099;DHT22;33900;53.640;9.942;2024-01-27T14:11:08;10.80;90.00
15099;DHT22;33900;53.640;9.942;2024-01-27T14:13:35;10.70;90.00
15099;DHT22;33900;53.640;9.942;2024-01-27T14:16:00;10.70;90.00
15099;DHT22;33900;53.640;9.942;2024-01-27T14:18:26;10.70;90.00
15099;DHT22;33900;53.640;9.942;2024-01-27T14:20:51;10.70;90.10
15099;DHT22;33900;53.640;9.942;2024-01-27T14:23:17;10.70;90.30
15099;DHT22;33900;53.640;9.942;2024-01-27T14:25:43;10.70;90.30
15099;DHT22;33900;53.640;9.942;2024-01-27T14:28:09;10.70;90.40
15099;DHT22;33900;53.640;9.942;2024-01-27T14:30:36;10.60;90.40
15099;DHT22;33900;53.640;9.942;2024-01-27T14:33:02;10.60;90.50
15099;DHT22;33900;53.640;9.942;2024-01-27T14:35:28;10.60;90.50
15099;DHT22;33900;53.640;9.942;2024-01-27T14:37:53;10.60;90.60
15099;DHT22;33900;53.640;9.942;2024-01-27T14:40:22;10.60;90.60
15099;DHT22;33900;53.640;9.942;2024-01-27T14:42:48;10.60;90.50
15099;DHT22;33900;53.640;9.942;2024-01-27T14:45:15;10.50;90.40
15099;DHT22;33900;53.640;9.942;2024-01-27T14:47:41;10.50;90.50
15099;DHT22;33900;53.640;9.942;2024-01-27T14:50:06;10.50;90.60
15099;DHT22;33900;53.640;9.942;2024-01-27T14:52:32;10.40;90.60
15099;DHT22;33900;53.640;9.942;2024-01-27T14:54:58;10.40;90.50
15099;DHT22;33900;53.640;9.942;2024-01-27T14:57:23;10.40;90.60
15099;DHT22;33900;53.640;9.942;2024-01-27T14:59:49;10.40;90.70
15099;DHT22;33900;53.640;9.942;2024-01-27T15:02:15;10.30;90.70
15099;DHT22;33900;53.640;9.942;2024-01-27T15:04:41;10.30;90.80
15099;DHT22;33900;53.640;9.942;2024-01-27T15:07:07;10.30;90.70
15099;DHT22;33900;53.640;9.942;2024-01-27T15:09:32;10.20;90.60
15099;DHT22;33900;53.640;9.942;2024-01-27T15:11:58;10.20;90.60
15099;DHT22;33900;53.640;9.942;2024-01-27T15:14:24;10.20;90.70
15099;DHT22;33900;53.640;9.942;2024-01-27T15:16:49;10.10;90.70
15099;DHT22;33900;53.640;9.942;2024-01-27T15:19:15;10.10;90.80
15099;DHT22;33900;53.640;9.942;2024-01-27T15:21:41;10.10;90.90
15099;DHT22;33900;53.640;9.942;2024-01-27T15:24:07;10.10;90.90
15099;DHT22;33900;53.640;9.942;2024-01-27T15:26:33;10.10;91.00
15099;DHT22;33900;53.640;9.942;2024-01-27T15:28:58;10.10;91.00
15099;DHT22;33900;53.640;9.942;2024-01-27T15:31:24;10.10;91.00
15099;DHT22;33900;53.640;9.942;2024-01-27T15:33:51;10.00;91.00
15099;DHT22;33900;53.640;9.942;2024-01-27T15:36:16;10.00;91.10